Millers River @ Athol, Ma

Millers River at Athol
 Total Drainage Area: 280 sq. miles 
 Drainage Area Controlled by Corps Dams: 225 sq. miles (80%) 
 Warning Flow/Stage: 2,670 cfs / 2.5 feet 
 Flood Flow/Stage: 3,155 cfs / 3.3 feet 
Date Time
(Eastern)
Stage
(ft)
Flow
(cfs)
CSM
(cfs / sq. mi.)
Jan-31 02:30 pm -0.63 1,151 4.1
Jan-31 01:30 pm -0.62 1,154 4.1
Jan-31 12:30 pm -0.62 1,154 4.1
Jan-31 11:30 am -0.61 1,158 4.1
Jan-31 10:30 am -0.60 1,162 4.2
Jan-31 09:30 am -0.58 1,170 4.2
Jan-31 08:30 am -0.59 1,166 4.2
Jan-31 07:30 am -0.58 1,170 4.2
Jan-31 06:30 am -0.58 1,170 4.2
Jan-31 05:30 am -0.56 1,177 4.2
Jan-31 04:30 am -0.56 1,177 4.2
Jan-31 03:30 am -0.56 1,177 4.2
Jan-31 02:30 am -0.55 1,181 4.2
Jan-31 01:30 am -0.55 1,181 4.2
Jan-31 12:30 am -0.55 1,181 4.2
Jan-30 11:30 pm -0.54 1,185 4.2
Jan-30 10:30 pm -0.54 1,185 4.2
Jan-30 09:30 pm -0.54 1,185 4.2
Jan-30 08:30 pm -0.54 1,185 4.2
Jan-30 07:30 pm -0.54 1,185 4.2
Jan-30 06:30 pm -0.55 1,181 4.2
Jan-30 05:30 pm -0.55 1,181 4.2
Jan-30 04:30 pm -0.57 1,173 4.2
Jan-30 03:30 pm -0.61 1,158 4.1
Jan-30 02:30 pm -0.66 1,139 4.1
Report Generated January 31, 2023 02:55 pm